Time;durP1;ratioP1;P1;durP2;ratioP2;P2;SDS_P1;SDS_P2;PMS_P1;PMS_P2;Temp;Humidity;BMP_temperature;BMP_pressure;BME280_temperature;BME280_humidity;BME280_pressure;Samples;Min_cycle;Max_cycle;Signal;HPM_P1;HPM_P2
2024/02/16 00:00:59;;;;;;;;;;;;;;;1.52;78.83;101768.59;5032894;28;19929;-75
2024/02/16 00:03:26;;;;;;;;;;;;;;;1.52;78.91;101756.56;5033060;28;20374;-75
2024/02/16 00:05:53;;;;;;;;;;;;;;;1.52;78.84;101755.72;5032879;28;20449;-75
2024/02/16 00:08:20;;;;;;;;;;;;;;;1.51;78.86;101751.38;5032887;28;19925;-75
2024/02/16 00:10:46;;;;;;;;;;;;;;;1.52;78.75;101750.56;5032885;28;19937;-74
2024/02/16 00:13:13;;;;;;;;;;;;;;;1.52;78.58;101753.13;5032965;28;19931;-75
2024/02/16 00:15:41;;;;;;;;;;;;;;;1.52;78.76;101746.25;5032645;28;19932;-75
2024/02/16 00:18:08;;;;;;;;;;;;;;;1.52;79.00;101746.25;5032879;28;19931;-75
2024/02/16 00:20:34;;;;;;;;;;;;;;;1.52;78.91;101740.22;5019431;28;20028;-75
2024/02/16 00:23:01;;;;;;;;;;;;;;;1.53;78.95;101734.22;5012992;28;19925;-75
2024/02/16 00:25:27;;;;;;;;;;;;;;;1.53;79.13;101729.06;5012929;28;19926;-75
2024/02/16 00:27:54;;;;;;;;;;;;;;;1.54;78.91;101728.28;5012938;28;19925;-76
2024/02/16 00:30:21;;;;;;;;;;;;;;;1.54;78.87;101730.84;5013034;28;19925;-75
2024/02/16 00:32:49;;;;;;;;;;;;;;;1.54;78.84;101736.88;5016581;28;20033;-75
2024/02/16 00:35:17;;;;;;;;;;;;;;;1.55;78.89;101735.16;5016838;28;19926;-75
2024/02/16 00:37:45;;;;;;;;;;;;;;;1.55;78.75;101735.16;5016570;28;20444;-75
2024/02/16 00:40:12;;;;;;;;;;;;;;;1.56;78.88;101734.31;5016476;28;20021;-75
2024/02/16 00:42:39;;;;;;;;;;;;;;;1.56;78.99;101721.44;5016549;28;19926;-75
2024/02/16 00:45:06;;;;;;;;;;;;;;;1.56;78.64;101719.75;5016498;28;20386;-75
2024/02/16 00:47:32;;;;;;;;;;;;;;;1.56;78.74;101717.16;5016747;28;19929;-75
2024/02/16 00:50:00;;;;;;;;;;;;;;;1.57;78.92;101707.72;5016534;28;20408;-75
2024/02/16 00:52:27;;;;;;;;;;;;;;;1.56;78.83;101704.28;5016241;28;19933;-76
2024/02/16 00:54:54;;;;;;;;;;;;;;;1.57;78.91;101698.28;5016570;28;20431;-75
2024/02/16 00:57:20;;;;;;;;;;;;;;;1.57;78.91;101699.97;5036003;28;19929;-73
2024/02/16 00:59:47;;;;;;;;;;;;;;;1.57;78.93;101694.81;5035916;28;19972;-75
2024/02/16 01:02:16;;;;;;;;;;;;;;;1.58;79.05;101693.97;5035877;28;20424;-74
2024/02/16 01:04:43;;;;;;;;;;;;;;;1.58;78.56;101683.66;5035789;28;19932;-75
2024/02/16 01:07:12;;;;;;;;;;;;;;;1.58;79.03;101674.22;5035788;28;19925;-74
2024/02/16 01:09:38;;;;;;;;;;;;;;;1.59;78.72;101664.78;5035851;28;19948;-75
2024/02/16 01:12:05;;;;;;;;;;;;;;;1.58;79.08;101666.47;5035765;28;20301;-74
2024/02/16 01:14:31;;;;;;;;;;;;;;;1.58;79.17;101658.75;5035701;28;19929;-74
2024/02/16 01:16:58;;;;;;;;;;;;;;;1.59;79.04;101657.03;5035697;28;19929;-75
2024/02/16 01:19:25;;;;;;;;;;;;;;;1.59;78.95;101649.28;5035479;28;19996;-75
2024/02/16 01:21:53;;;;;;;;;;;;;;;1.58;78.92;101644.97;5035778;28;20020;-75
2024/02/16 01:24:21;;;;;;;;;;;;;;;1.58;78.88;101644.97;5035389;28;19929;-75
2024/02/16 01:26:47;;;;;;;;;;;;;;;1.57;79.53;101640.66;5035354;28;19925;-74
2024/02/16 01:29:14;;;;;;;;;;;;;;;1.56;78.98;101637.22;5036356;28;19952;-81
2024/02/16 01:31:40;;;;;;;;;;;;;;;1.56;78.85;101644.94;5036280;28;19929;-81
2024/02/16 01:34:07;;;;;;;;;;;;;;;1.56;79.50;101642.38;5036712;28;19929;-82
2024/02/16 01:36:34;;;;;;;;;;;;;;;1.56;79.37;101647.53;5036178;28;19936;-81
2024/02/16 01:39:00;;;;;;;;;;;;;;;1.57;79.47;101638.94;5035977;28;20308;-81
2024/02/16 01:41:28;;;;;;;;;;;;;;;1.57;79.25;101630.34;5035757;28;19935;-81
2024/02/16 01:43:56;;;;;;;;;;;;;;;1.57;79.63;101632.94;5034855;28;19925;-81
2024/02/16 01:46:23;;;;;;;;;;;;;;;1.55;79.54;101622.53;5036029;28;20015;-81
2024/02/16 01:48:50;;;;;;;;;;;;;;;1.54;79.63;101622.53;5035894;28;19925;-82
2024/02/16 01:51:17;;;;;;;;;;;;;;;1.53;79.49;101620.75;5035674;28;20376;-82
2024/02/16 01:53:43;;;;;;;;;;;;;;;1.51;79.51;101610.41;5035793;28;19925;-81
2024/02/16 01:56:10;;;;;;;;;;;;;;;1.50;80.17;101600.91;5036165;28;20400;-81
2024/02/16 01:58:39;;;;;;;;;;;;;;;1.48;80.06;101595.72;5035998;28;20015;-82
2024/02/16 02:01:05;;;;;;;;;;;;;;;1.48;80.20;101594.84;5035863;28;19932;-82
2024/02/16 02:03:33;;;;;;;;;;;;;;;1.48;80.24;101595.72;5035733;28;20009;-82
2024/02/16 02:05:59;;;;;;;;;;;;;;;1.48;80.24;101589.69;5035432;28;20426;-82
2024/02/16 02:08:26;;;;;;;;;;;;;;;1.46;80.25;101581.91;5035182;28;19925;-75
2024/02/16 02:10:53;;;;;;;;;;;;;;;1.48;80.37;101589.69;5034496;28;20391;-75
2024/02/16 02:13:21;;;;;;;;;;;;;;;1.48;80.39;101579.38;5034884;28;19925;-75
2024/02/16 02:15:49;;;;;;;;;;;;;;;1.47;80.19;101580.19;5034693;28;19972;-75
2024/02/16 02:18:16;;;;;;;;;;;;;;;1.48;80.53;101579.38;5034416;28;19929;-75
2024/02/16 02:20:43;;;;;;;;;;;;;;;1.48;80.40;101569.06;5016639;28;19931;-75
2024/02/16 02:23:11;;;;;;;;;;;;;;;1.46;80.35;101570.72;5014697;28;19929;-76
2024/02/16 02:25:39;;;;;;;;;;;;;;;1.46;80.58;101570.72;5014587;28;19929;-75
2024/02/16 02:28:06;;;;;;;;;;;;;;;1.46;80.69;101565.56;5014574;28;19925;-75
2024/02/16 02:30:33;;;;;;;;;;;;;;;1.44;80.86;101562.94;5014689;28;19968;-75
2024/02/16 02:32:59;;;;;;;;;;;;;;;1.43;80.83;101566.34;5014408;28;19929;-75
2024/02/16 02:35:26;;;;;;;;;;;;;;;1.43;80.70;101566.34;5022681;28;19935;-75
2024/02/16 02:37:53;;;;;;;;;;;;;;;1.44;81.14;101556.91;5034156;28;20473;-73
2024/02/16 02:40:21;;;;;;;;;;;;;;;1.43;80.87;101560.31;5034071;28;19925;-73
2024/02/16 02:42:47;;;;;;;;;;;;;;;1.44;80.95;101556.91;5034157;28;19975;-72
2024/02/16 02:45:14;;;;;;;;;;;;;;;1.43;81.49;101547.44;5033954;28;19932;-73
2024/02/16 02:47:41;;;;;;;;;;;;;;;1.43;81.52;101545.72;5033849;28;19933;-72
2024/02/16 02:50:08;;;;;;;;;;;;;;;1.41;81.51;101542.22;5033840;28;20138;-73
2024/02/16 02:52:34;;;;;;;;;;;;;;;1.42;81.75;101532.78;5033845;28;20302;-73
2024/02/16 02:55:01;;;;;;;;;;;;;;;1.41;81.73;101526.75;5033552;28;19925;-73
2024/02/16 02:57:29;;;;;;;;;;;;;;;1.42;81.46;101522.47;5033875;28;19936;-73
2024/02/16 03:00:03;;;;;;;;;;;;;;;1.43;81.75;101514.78;5033964;28;20321;-73
2024/02/16 03:02:30;;;;;;;;;;;;;;;1.44;81.42;101513.94;5033645;28;19925;-73
2024/02/16 03:04:57;;;;;;;;;;;;;;;1.43;81.69;101504.47;5033664;28;19925;-73
2024/02/16 03:07:24;;;;;;;;;;;;;;;1.43;81.32;101499.31;5033440;28;19999;-72
2024/02/16 03:09:50;;;;;;;;;;;;;;;1.44;81.63;101497.59;5033403;28;20374;-73
2024/02/16 03:12:17;;;;;;;;;;;;;;;1.44;81.42;101489.88;5033652;28;19925;-73
2024/02/16 03:14:45;;;;;;;;;;;;;;;1.45;81.68;101496.78;5033409;28;19925;-73
2024/02/16 03:17:11;;;;;;;;;;;;;;;1.43;81.48;101486.41;5033393;28;19925;-73
2024/02/16 03:19:38;;;;;;;;;;;;;;;1.43;81.72;101489.00;5033435;28;19928;-75
2024/02/16 03:22:05;;;;;;;;;;;;;;;1.44;81.43;101488.16;5033372;28;19925;-75
2024/02/16 03:24:31;;;;;;;;;;;;;;;1.43;81.60;101473.53;5033802;28;20298;-76
2024/02/16 03:26:58;;;;;;;;;;;;;;;1.44;81.88;101472.69;5033500;28;20016;-75
2024/02/16 03:29:25;;;;;;;;;;;;;;;1.43;81.38;101463.22;5033183;28;19929;-75
2024/02/16 03:31:53;;;;;;;;;;;;;;;1.43;81.57;101458.06;5033105;28;19931;-75
2024/02/16 03:34:19;;;;;;;;;;;;;;;1.42;82.12;101460.56;5033248;28;20015;-75
2024/02/16 03:36:46;;;;;;;;;;;;;;;1.42;81.68;101453.75;5025214;28;20290;-75
2024/02/16 03:39:12;;;;;;;;;;;;;;;1.42;81.91;101451.16;5013550;28;19932;-76
2024/02/16 03:41:39;;;;;;;;;;;;;;;1.43;81.94;101452.03;5013515;28;19925;-76
2024/02/16 03:44:06;;;;;;;;;;;;;;;1.43;81.67;101455.47;5013281;28;19936;-75
2024/02/16 03:46:32;;;;;;;;;;;;;;;1.43;81.90;101449.44;5013410;28;19929;-75
2024/02/16 03:49:00;;;;;;;;;;;;;;;1.42;81.94;101440.84;5013325;28;19929;-75
2024/02/16 03:51:27;;;;;;;;;;;;;;;1.42;81.61;101435.69;5013355;28;19930;-76
2024/02/16 03:53:54;;;;;;;;;;;;;;;1.40;82.17;101437.34;5013213;28;19930;-76
2024/02/16 03:56:20;;;;;;;;;;;;;;;1.40;81.63;101437.34;5013209;28;20366;-75
2024/02/16 03:58:47;;;;;;;;;;;;;;;1.40;81.96;101442.50;5013522;28;20012;-80
2024/02/16 04:01:14;;;;;;;;;;;;;;;1.39;82.05;101435.63;5013461;28;19926;-80
2024/02/16 04:03:41;;;;;;;;;;;;;;;1.39;82.01;101433.03;5013465;28;19972;-80
2024/02/16 04:06:09;;;;;;;;;;;;;;;1.38;81.52;101428.69;5014892;28;19929;-80
2024/02/16 04:08:36;;;;;;;;;;;;;;;1.39;81.81;101427.88;5017489;28;20301;-73
2024/02/16 04:11:03;;;;;;;;;;;;;;;1.38;82.01;101405.50;5017229;28;19925;-73
2024/02/16 04:13:30;;;;;;;;;;;;;;;1.37;82.08;101401.19;5025675;28;19933;-73
2024/02/16 04:15:56;;;;;;;;;;;;;;;1.37;81.63;101395.16;5036722;28;20418;-73
2024/02/16 04:18:23;;;;;;;;;;;;;;;1.38;81.90;101392.59;5034305;28;19931;-73
2024/02/16 04:20:49;;;;;;;;;;;;;;;1.38;81.65;101386.56;5016819;28;20309;-73
2024/02/16 04:23:17;;;;;;;;;;;;;;;1.37;82.07;101385.72;5016830;28;19925;-73
2024/02/16 04:25:44;;;;;;;;;;;;;;;1.38;81.94;101377.13;5016850;28;19932;-73
2024/02/16 04:28:11;;;;;;;;;;;;;;;1.39;81.96;101378.88;5016632;28;20390;-73
2024/02/16 04:30:37;;;;;;;;;;;;;;;1.39;81.72;101368.56;5016645;28;19965;-73
2024/02/16 04:33:04;;;;;;;;;;;;;;;1.40;81.53;101370.31;5016854;28;19947;-73
2024/02/16 04:35:31;;;;;;;;;;;;;;;1.40;81.56;101360.00;5016694;28;19980;-73
2024/02/16 04:37:57;;;;;;;;;;;;;;;1.40;81.74;101352.25;5016697;28;20081;-75
2024/02/16 04:40:26;;;;;;;;;;;;;;;1.40;81.58;101349.69;5016590;28;19925;-75
2024/02/16 04:42:53;;;;;;;;;;;;;;;1.41;81.56;101342.81;5016705;28;19933;-75
2024/02/16 04:45:20;;;;;;;;;;;;;;;1.40;81.89;101339.38;5016775;28;19926;-76
2024/02/16 04:47:46;;;;;;;;;;;;;;;1.41;81.66;101324.75;5016401;28;19926;-75
2024/02/16 04:50:13;;;;;;;;;;;;;;;1.40;81.72;101323.91;5016431;28;19933;-75
2024/02/16 04:52:40;;;;;;;;;;;;;;;1.39;81.87;101319.59;5016260;28;20341;-75
2024/02/16 04:55:08;;;;;;;;;;;;;;;1.39;81.85;101319.59;5016488;28;19932;-75
2024/02/16 04:57:36;;;;;;;;;;;;;;;1.39;81.84;101319.59;5016200;28;19929;-75
2024/02/16 05:00:02;;;;;;;;;;;;;;;1.40;81.97;101313.59;5016325;28;19925;-75
2024/02/16 05:02:29;;;;;;;;;;;;;;;1.40;81.99;101307.56;5016308;28;19988;-75
2024/02/16 05:04:55;;;;;;;;;;;;;;;1.40;81.93;101308.44;5016194;28;19936;-75
2024/02/16 05:07:22;;;;;;;;;;;;;;;1.40;81.81;101304.97;5016466;28;19925;-75
2024/02/16 05:09:49;;;;;;;;;;;;;;;1.40;81.70;101298.13;5016052;28;19980;-75
2024/02/16 05:12:18;;;;;;;;;;;;;;;1.41;81.89;101297.28;5016075;28;19926;-75
2024/02/16 05:14:49;;;;;;;;;;;;;;;1.41;82.21;101292.13;5016124;28;19934;-75
2024/02/16 05:17:16;;;;;;;;;;;;;;;1.41;82.21;101281.78;5015870;28;19933;-75
2024/02/16 05:19:43;;;;;;;;;;;;;;;1.42;82.17;101291.31;5016897;28;19935;-82
2024/02/16 05:22:09;;;;;;;;;;;;;;;1.43;82.09;101279.28;5016792;28;20036;-81
2024/02/16 05:24:36;;;;;;;;;;;;;;;1.43;81.74;101272.41;5017132;28;19925;-81
2024/02/16 05:27:03;;;;;;;;;;;;;;;1.43;81.91;101272.41;5016703;28;19926;-82
2024/02/16 05:29:30;;;;;;;;;;;;;;;1.44;81.86;101255.22;5016370;28;19932;-82
2024/02/16 05:31:58;;;;;;;;;;;;;;;1.43;81.84;101246.63;5016734;28;19940;-81
2024/02/16 05:34:25;;;;;;;;;;;;;;;1.43;82.27;101243.16;5016636;28;19925;-82
2024/02/16 05:36:52;;;;;;;;;;;;;;;1.43;82.06;101238.88;5016615;28;19932;-82
2024/02/16 05:39:26;;;;;;;;;;;;;;;1.42;82.06;101237.16;5016342;28;20303;-81
2024/02/16 05:41:53;;;;;;;;;;;;;;;1.42;82.20;101229.41;5016694;28;19926;-81
2024/02/16 05:44:20;;;;;;;;;;;;;;;1.42;82.03;101232.00;5016239;28;19936;-81
2024/02/16 05:46:47;;;;;;;;;;;;;;;1.42;82.32;101219.09;5016266;28;19925;-81
2024/02/16 05:49:15;;;;;;;;;;;;;;;1.42;82.18;101213.94;5015503;28;19959;-75
2024/02/16 05:51:46;;;;;;;;;;;;;;;1.42;82.18;101213.03;5015216;28;19980;-76
2024/02/16 05:54:19;;;;;;;;;;;;;;;1.41;81.96;101207.03;5015272;28;20305;-75
2024/02/16 05:56:45;;;;;;;;;;;;;;;1.42;82.04;101205.31;5015254;28;19929;-76
2024/02/16 05:59:12;;;;;;;;;;;;;;;1.42;82.12;101193.31;5014983;28;19926;-76
2024/02/16 06:01:39;;;;;;;;;;;;;;;1.42;82.02;101198.47;5014957;28;19932;-76
2024/02/16 06:04:05;;;;;;;;;;;;;;;1.42;82.13;101183.00;5015086;28;19925;-75
2024/02/16 06:06:33;;;;;;;;;;;;;;;1.43;82.23;101174.41;5015440;28;19931;-76
2024/02/16 06:09:00;;;;;;;;;;;;;;;1.43;82.02;101179.56;5034524;28;20389;-76
2024/02/16 06:11:26;;;;;;;;;;;;;;;1.43;82.03;101178.72;5034577;28;19925;-75
2024/02/16 06:13:53;;;;;;;;;;;;;;;1.43;81.88;101164.09;5034479;28;19932;-76
2024/02/16 06:16:20;;;;;;;;;;;;;;;1.44;82.00;101165.84;5034470;28;19926;-75
2024/02/16 06:18:46;;;;;;;;;;;;;;;1.44;82.07;101155.53;5025406;28;20283;-76
2024/02/16 06:21:13;;;;;;;;;;;;;;;1.45;81.97;101152.13;5014248;28;19932;-76
2024/02/16 06:23:41;;;;;;;;;;;;;;;1.46;81.92;101146.13;5014514;28;20405;-76
2024/02/16 06:26:08;;;;;;;;;;;;;;;1.45;82.03;101139.22;5014791;28;19948;-76
2024/02/16 06:28:34;;;;;;;;;;;;;;;1.46;82.05;101134.94;5014086;28;19936;-76
2024/02/16 06:31:01;;;;;;;;;;;;;;;1.47;82.19;101123.78;5014380;28;19931;-76
2024/02/16 06:33:27;;;;;;;;;;;;;;;1.46;82.36;101122.91;5014824;28;19936;-76
2024/02/16 06:35:54;;;;;;;;;;;;;;;1.48;82.15;101116.09;5014379;28;19937;-76
2024/02/16 06:38:21;;;;;;;;;;;;;;;1.49;81.99;101109.22;5014515;28;19932;-76
2024/02/16 06:40:48;;;;;;;;;;;;;;;1.50;81.99;101103.22;5014337;28;19925;-77
2024/02/16 06:43:15;;;;;;;;;;;;;;;1.52;82.09;101095.50;5014424;28;20305;-76
2024/02/16 06:45:42;;;;;;;;;;;;;;;1.53;82.14;101092.09;5014232;28;19931;-76
2024/02/16 06:48:09;;;;;;;;;;;;;;;1.52;81.83;101085.19;5015143;28;20392;-80
2024/02/16 06:50:35;;;;;;;;;;;;;;;1.53;82.13;101076.63;5014759;28;19951;-84
2024/02/16 06:53:02;;;;;;;;;;;;;;;1.54;81.96;101074.09;5014628;28;19925;-80
2024/02/16 06:55:28;;;;;;;;;;;;;;;1.56;82.33;101071.50;5014578;28;19932;-79
2024/02/16 06:57:55;;;;;;;;;;;;;;;1.57;81.99;101062.97;5034307;28;19932;-81
2024/02/16 07:00:22;;;;;;;;;;;;;;;1.57;81.83;101055.22;5034414;28;19981;-75
2024/02/16 07:02:49;;;;;;;;;;;;;;;1.59;82.17;101056.09;5033682;28;19933;-76
2024/02/16 07:05:17;;;;;;;;;;;;;;;1.59;81.77;101056.09;5033784;28;20285;-76
2024/02/16 07:07:44;;;;;;;;;;;;;;;1.60;81.75;101044.97;5034011;28;20394;-80
2024/02/16 07:10:13;;;;;;;;;;;;;;;1.62;82.00;101043.28;5033851;28;19979;-79
2024/02/16 07:12:40;;;;;;;;;;;;;;;1.62;81.73;101035.53;5033867;28;19929;-80
2024/02/16 07:15:09;;;;;;;;;;;;;;;1.65;81.68;101040.75;5033872;28;20382;-78
2024/02/16 07:17:36;;;;;;;;;;;;;;;1.65;81.92;101026.16;5033935;28;19925;-80
2024/02/16 07:20:04;;;;;;;;;;;;;;;1.65;81.88;101015.81;5033993;28;19929;-79
2024/02/16 07:22:32;;;;;;;;;;;;;;;1.67;81.75;101018.41;5034135;28;20341;-80
2024/02/16 07:24:59;;;;;;;;;;;;;;;1.69;81.68;101021.91;5033853;28;20437;-80
2024/02/16 07:27:26;;;;;;;;;;;;;;;1.69;81.86;101015.03;5033540;28;19925;-81
2024/02/16 07:29:53;;;;;;;;;;;;;;;1.72;81.56;101010.78;5033664;28;20409;-77
2024/02/16 07:32:21;;;;;;;;;;;;;;;1.73;81.92;101007.34;5033362;28;19929;-78
2024/02/16 07:34:47;;;;;;;;;;;;;;;1.74;81.53;100999.66;5033686;28;19931;-79
2024/02/16 07:37:15;;;;;;;;;;;;;;;1.77;81.62;100988.50;5033226;28;19925;-79
2024/02/16 07:39:42;;;;;;;;;;;;;;;1.78;81.79;100985.06;5034316;28;19926;-84
2024/02/16 07:42:09;;;;;;;;;;;;;;;1.80;81.94;100981.69;5034138;28;20305;-86
2024/02/16 07:44:36;;;;;;;;;;;;;;;1.81;81.83;100975.66;5034147;28;19929;-86
2024/02/16 07:47:03;;;;;;;;;;;;;;;1.84;81.82;100967.13;5034655;28;19925;-85
2024/02/16 07:49:31;;;;;;;;;;;;;;;1.87;82.08;100968.03;5033925;28;19933;-84
2024/02/16 07:51:57;;;;;;;;;;;;;;;1.89;82.15;100958.59;5034369;28;19925;-82
2024/02/16 07:54:24;;;;;;;;;;;;;;;1.91;82.22;100949.19;5034158;28;19947;-82
2024/02/16 07:56:50;;;;;;;;;;;;;;;1.96;82.21;100948.38;5033602;28;19925;-82
2024/02/16 07:59:18;;;;;;;;;;;;;;;1.97;82.28;100942.38;5034028;28;19926;-82
2024/02/16 08:01:45;;;;;;;;;;;;;;;1.99;82.17;100946.72;5034100;28;19929;-83
2024/02/16 08:04:11;;;;;;;;;;;;;;;2.02;82.05;100938.16;5034408;28;19925;-85
2024/02/16 08:06:39;;;;;;;;;;;;;;;2.06;82.14;100939.94;5034028;28;19925;-83
2024/02/16 08:09:06;;;;;;;;;;;;;;;2.07;82.02;100936.50;5033406;28;19925;-74
2024/02/16 08:11:33;;;;;;;;;;;;;;;2.10;82.36;100921.94;5032869;28;19957;-74
2024/02/16 08:14:00;;;;;;;;;;;;;;;2.14;82.43;100921.13;5032778;28;19932;-74
2024/02/16 08:16:27;;;;;;;;;;;;;;;2.18;82.26;100924.63;5033170;28;19947;-75
2024/02/16 08:18:53;;;;;;;;;;;;;;;2.22;82.25;100920.38;5017579;28;19936;-75
2024/02/16 08:21:20;;;;;;;;;;;;;;;2.24;82.12;100919.53;5013042;28;19929;-75
2024/02/16 08:23:48;;;;;;;;;;;;;;;2.28;82.37;100913.59;5023899;28;20031;-73
2024/02/16 08:26:17;;;;;;;;;;;;;;;2.31;82.07;100911.03;5032957;28;19929;-72
2024/02/16 08:28:44;;;;;;;;;;;;;;;2.36;82.31;100906.81;5033034;28;19931;-73
2024/02/16 08:31:11;;;;;;;;;;;;;;;2.40;82.58;100899.97;5032628;28;19971;-73
2024/02/16 08:33:38;;;;;;;;;;;;;;;2.45;82.42;100900.91;5031900;28;19925;-72
2024/02/16 08:36:08;;;;;;;;;;;;;;;2.49;82.29;100888.88;5032579;28;20391;-72
2024/02/16 08:38:35;;;;;;;;;;;;;;;2.52;82.18;100889.78;5032609;28;20329;-74
2024/02/16 08:41:03;;;;;;;;;;;;;;;2.57;82.20;100902.75;5032491;28;19929;-73
2024/02/16 08:43:30;;;;;;;;;;;;;;;2.60;82.46;100884.72;5030883;28;19929;-73
2024/02/16 08:45:56;;;;;;;;;;;;;;;2.63;82.35;100892.50;5032482;28;20298;-74
2024/02/16 08:48:25;;;;;;;;;;;;;;;2.67;82.21;100891.69;5032367;28;19929;-72
2024/02/16 08:50:51;;;;;;;;;;;;;;;2.70;82.50;100886.56;5032339;28;19932;-72
2024/02/16 08:53:18;;;;;;;;;;;;;;;2.74;82.28;100874.53;5035736;28;19925;-73
2024/02/16 08:55:44;;;;;;;;;;;;;;;2.77;82.87;100872.00;5036085;28;19925;-74
2024/02/16 08:58:13;;;;;;;;;;;;;;;2.80;82.47;100875.47;5035931;28;20279;-74
2024/02/16 09:00:40;;;;;;;;;;;;;;;2.86;82.44;100873.81;5036292;28;19928;-74
2024/02/16 09:03:08;;;;;;;;;;;;;;;2.88;82.49;100872.97;5035969;28;19929;-74
2024/02/16 09:05:35;;;;;;;;;;;;;;;2.91;82.54;100865.25;5035739;28;19933;-74
2024/02/16 09:08:02;;;;;;;;;;;;;;;2.94;82.64;100873.03;5035757;28;20374;-74
2024/02/16 09:10:29;;;;;;;;;;;;;;;2.98;82.70;100859.28;5035671;28;20384;-75
2024/02/16 09:12:56;;;;;;;;;;;;;;;3.01;82.63;100861.03;5035704;28;19925;-74
2024/02/16 09:15:24;;;;;;;;;;;;;;;3.04;82.74;100858.47;5035641;28;19932;-74
2024/02/16 09:17:50;;;;;;;;;;;;;;;3.07;82.77;100848.19;5035660;28;19940;-73
2024/02/16 09:20:22;;;;;;;;;;;;;;;3.11;83.10;100846.47;5035465;28;19932;-75
2024/02/16 09:22:49;;;;;;;;;;;;;;;3.14;82.72;100862.88;5035656;28;19980;-73
2024/02/16 09:25:16;;;;;;;;;;;;;;;3.16;82.73;100853.44;5035625;28;20023;-73
2024/02/16 09:27:44;;;;;;;;;;;;;;;3.19;82.42;100856.03;5035424;28;19925;-73
2024/02/16 09:30:12;;;;;;;;;;;;;;;3.22;82.46;100853.47;5034292;28;19932;-73
2024/02/16 09:32:41;;;;;;;;;;;;;;;3.24;82.53;100854.38;5035360;28;20408;-73
2024/02/16 09:35:08;;;;;;;;;;;;;;;3.27;82.50;100854.38;5035397;28;19925;-75
2024/02/16 09:37:35;;;;;;;;;;;;;;;3.29;82.47;100844.91;5035249;28;19935;-75
2024/02/16 09:40:03;;;;;;;;;;;;;;;3.32;82.44;100850.97;5035574;28;19947;-75
2024/02/16 09:42:30;;;;;;;;;;;;;;;3.35;82.34;100844.09;5035424;28;19935;-74
2024/02/16 09:44:57;;;;;;;;;;;;;;;3.38;82.33;100843.25;5035136;28;20393;-74
2024/02/16 09:47:25;;;;;;;;;;;;;;;3.39;82.20;100845.00;5035062;28;19925;-74
2024/02/16 09:49:53;;;;;;;;;;;;;;;3.41;82.27;100859.69;5034678;28;19995;-74
2024/02/16 09:52:20;;;;;;;;;;;;;;;3.44;82.33;100859.72;5035062;28;19929;-74
2024/02/16 09:54:47;;;;;;;;;;;;;;;3.47;82.21;100856.28;5034872;28;19931;-73
2024/02/16 09:57:13;;;;;;;;;;;;;;;3.49;82.47;100854.53;5033928;28;20353;-73
2024/02/16 09:59:40;;;;;;;;;;;;;;;3.50;82.03;100852.00;5034942;28;19929;-75
2024/02/16 10:02:07;;;;;;;;;;;;;;;3.51;82.24;100850.25;5034828;28;20275;-76
2024/02/16 10:04:34;;;;;;;;;;;;;;;3.54;82.15;100839.94;5034051;28;19932;-75
2024/02/16 10:07:02;;;;;;;;;;;;;;;3.54;82.07;100839.94;5034645;28;19936;-76
2024/02/16 10:09:30;;;;;;;;;;;;;;;3.56;82.14;100842.53;5035131;28;19952;-77
2024/02/16 10:11:56;;;;;;;;;;;;;;;3.56;82.02;100840.81;5034635;28;19925;-74
2024/02/16 10:14:25;;;;;;;;;;;;;;;3.58;82.34;100841.69;5034794;28;19933;-74
2024/02/16 10:17:00;;;;;;;;;;;;;;;3.59;82.12;100822.72;5034574;28;19924;-75
2024/02/16 10:19:26;;;;;;;;;;;;;;;3.60;82.02;100821.00;5014784;28;19925;-75
2024/02/16 10:21:53;;;;;;;;;;;;;;;3.61;81.79;100821.03;5018420;28;19933;-75
2024/02/16 10:24:23;;;;;;;;;;;;;;;3.62;81.80;100816.72;5034649;28;19928;-74
2024/02/16 10:26:50;;;;;;;;;;;;;;;3.63;82.04;100819.28;5034635;28;19955;-74
2024/02/16 10:29:19;;;;;;;;;;;;;;;3.65;81.77;100808.97;5034643;28;20011;-78
2024/02/16 10:31:46;;;;;;;;;;;;;;;3.65;81.83;100811.56;5034268;28;19925;-77
2024/02/16 10:34:13;;;;;;;;;;;;;;;3.65;81.88;100804.66;5034196;28;20428;-78
2024/02/16 10:36:41;;;;;;;;;;;;;;;3.68;81.90;100803.81;5034271;28;19925;-81
2024/02/16 10:39:10;;;;;;;;;;;;;;;3.67;81.71;100797.78;5034298;28;19925;-79
2024/02/16 10:41:39;;;;;;;;;;;;;;;3.68;81.66;100796.91;5034065;28;19925;-79
2024/02/16 10:44:06;;;;;;;;;;;;;;;3.69;81.96;100800.34;5034167;28;19925;-79
2024/02/16 10:46:33;;;;;;;;;;;;;;;3.69;81.87;100796.03;5034585;28;19925;-80
2024/02/16 10:48:59;;;;;;;;;;;;;;;3.71;81.73;100796.91;5034244;28;19931;-79
2024/02/16 10:51:30;;;;;;;;;;;;;;;3.72;81.75;100792.59;5033860;28;19929;-80
2024/02/16 10:53:57;;;;;;;;;;;;;;;3.74;81.73;100785.72;5034193;28;19932;-79
2024/02/16 10:56:42;;;;;;;;;;;;;;;3.74;82.09;100775.38;5033706;28;19925;-75
2024/02/16 10:59:10;;;;;;;;;;;;;;;3.76;81.67;100780.56;5033843;28;19929;-76
2024/02/16 11:01:40;;;;;;;;;;;;;;;3.77;81.85;100771.94;5033827;28;19931;-74
2024/02/16 11:04:09;;;;;;;;;;;;;;;3.79;81.51;100772.81;5033845;28;20485;-75
2024/02/16 11:06:50;;;;;;;;;;;;;;;3.79;81.47;100770.25;5033700;28;19925;-74
2024/02/16 11:09:29;;;;;;;;;;;;;;;3.81;81.78;100765.91;5030756;28;20025;-80
2024/02/16 11:11:56;;;;;;;;;;;;;;;3.82;81.87;100772.84;5034253;28;19925;-80
2024/02/16 11:14:25;;;;;;;;;;;;;;;3.83;81.62;100769.38;5033676;28;20305;-80
2024/02/16 11:16:54;;;;;;;;;;;;;;;3.84;81.73;100763.34;5033623;28;19975;-80
2024/02/16 11:19:22;;;;;;;;;;;;;;;3.85;81.76;100765.09;5024905;28;20322;-80
2024/02/16 11:21:58;;;;;;;;;;;;;;;3.86;81.67;100759.03;5013908;28;19933;-80
2024/02/16 11:24:32;;;;;;;;;;;;;;;3.87;81.55;100753.03;5014139;28;20379;-80
2024/02/16 11:27:01;;;;;;;;;;;;;;;3.87;81.72;100761.66;5014087;28;19925;-80
2024/02/16 11:29:31;;;;;;;;;;;;;;;3.87;81.69;100758.19;5014041;28;19926;-81
2024/02/16 11:31:57;;;;;;;;;;;;;;;3.87;81.64;100745.25;5013579;28;20383;-80
2024/02/16 11:34:25;;;;;;;;;;;;;;;3.88;81.53;100742.66;5013863;28;19925;-80
2024/02/16 11:36:53;;;;;;;;;;;;;;;3.89;81.44;100739.19;5013936;28;20297;-81
2024/02/16 11:39:20;;;;;;;;;;;;;;;3.91;81.44;100736.63;5014115;28;20339;-78
2024/02/16 11:41:47;;;;;;;;;;;;;;;3.91;81.68;100728.88;5013586;28;19925;-76
2024/02/16 11:44:16;;;;;;;;;;;;;;;3.92;81.52;100733.19;5013657;28;20375;-76
2024/02/16 11:46:44;;;;;;;;;;;;;;;3.92;81.61;100728.91;5013295;28;20379;-77
2024/02/16 11:49:11;;;;;;;;;;;;;;;3.93;81.67;100724.56;5013260;28;19925;-77
2024/02/16 11:51:39;;;;;;;;;;;;;;;3.94;81.70;100718.53;5013283;28;19926;-77
2024/02/16 11:54:05;;;;;;;;;;;;;;;3.94;81.35;100716.78;5013274;28;20458;-76
2024/02/16 11:56:32;;;;;;;;;;;;;;;3.95;81.34;100721.13;5013313;28;20450;-77
2024/02/16 11:58:59;;;;;;;;;;;;;;;3.96;81.67;100719.41;5013500;28;20386;-77
2024/02/16 12:01:26;;;;;;;;;;;;;;;3.97;81.38;100727.16;5013208;28;19932;-79
2024/02/16 12:03:53;;;;;;;;;;;;;;;3.97;81.41;100721.97;5013386;28;19925;-76
2024/02/16 12:06:21;;;;;;;;;;;;;;;3.98;81.55;100707.34;5013296;28;20367;-77
2024/02/16 12:08:48;;;;;;;;;;;;;;;3.99;81.74;100708.19;5024761;28;20340;-79
2024/02/16 12:11:15;;;;;;;;;;;;;;;3.99;81.69;100709.06;5032828;28;20370;-77
2024/02/16 12:13:41;;;;;;;;;;;;;;;3.99;81.56;100714.22;5034641;28;19933;-80
2024/02/16 12:16:08;;;;;;;;;;;;;;;3.99;81.66;100706.47;5032914;28;19925;-76
2024/02/16 12:18:34;;;;;;;;;;;;;;;4.00;81.54;100709.91;5016179;28;19935;-73
2024/02/16 12:21:03;;;;;;;;;;;;;;;4.00;81.36;100705.59;5013411;28;19925;-75
2024/02/16 12:23:30;;;;;;;;;;;;;;;4.00;81.28;100695.25;5013062;28;19930;-76
2024/02/16 12:25:57;;;;;;;;;;;;;;;4.02;81.20;100692.69;5013282;28;19979;-76
2024/02/16 12:28:25;;;;;;;;;;;;;;;4.02;81.55;100696.13;5016378;28;19925;-76
2024/02/16 12:30:51;;;;;;;;;;;;;;;4.03;81.56;100697.84;5016745;28;19926;-75
2024/02/16 12:33:18;;;;;;;;;;;;;;;4.03;81.45;100695.25;5023680;28;19929;-75
2024/02/16 12:35:45;;;;;;;;;;;;;;;4.04;81.36;100690.94;5036673;28;19925;-75
2024/02/16 12:38:13;;;;;;;;;;;;;;;4.04;81.59;100691.81;5036402;28;19929;-75
2024/02/16 12:40:40;;;;;;;;;;;;;;;4.04;81.25;100691.81;5036309;28;19929;-74
2024/02/16 12:43:08;;;;;;;;;;;;;;;4.06;81.54;100695.25;5036369;28;19931;-75
2024/02/16 12:45:35;;;;;;;;;;;;;;;4.07;81.41;100688.38;5036570;28;19929;-74
2024/02/16 12:48:03;;;;;;;;;;;;;;;4.08;81.29;100690.09;5036283;28;19925;-76